^^
Station Historical Data
Daily Summary for October 12, 2018 Units:  Metric    English   Both
« Previous Day
Next Day »
Daily Weekly Monthly Yearly Custom
  High: Low: Average:
Temperature: -17.8 °C 2.7 °C 6.9 °C
Dew Point: -17.8 °C 0.7 °C 4.1 °C
Humidity: Humidity % 57 % 83 %
Wind Speed: 0 km/h 0 km/h 2.1 km/h
Wind Gust: 0 km/h - -
Wind:- - NW
Pressure: 0 hPa 1000.2 hPa -
Precipitation: 0 mm    
Historical Graphs
 
 
Tabular Data for October 12, 2018
Time Temperature Dew Point Pressure Wind Wind Speed Wind Gust Humidity Rainfall Rate (Hourly) solar Conditions
-17.8 °C -17.8 °C 0 hPa Calm     Humidity % 0 mm SoftwareType W/m2 Conditions
00:00 8.7 °C 8.7 °C 1000.6 hPa Calm     100 % 0 mm WeatherDisplay:10.37 W/m2 RA
00:05 8.7 °C 8.7 °C 1000.6 hPa Calm     100 % 0 mm WeatherDisplay:10.37 W/m2 RA
00:10 8.7 °C 8.7 °C 1000.6 hPa Calm     100 % 0 mm WeatherDisplay:10.37 W/m2 FEW
00:15 8.7 °C 8.7 °C 1000.2 hPa Calm     100 % 0 mm WeatherDisplay:10.37 W/m2 FEW
00:20 8.7 °C 8.7 °C 1000.6 hPa Calm     100 % 0 mm WeatherDisplay:10.37 W/m2 FEW
00:25 8.7 °C 8.7 °C 1000.6 hPa Calm     100 % 0 mm WeatherDisplay:10.37 W/m2 FEW
00:30 8.7 °C 8.7 °C 1000.6 hPa SE 1.6 km/h 4.8 km/h 100 % 0 mm WeatherDisplay:10.37 W/m2 FEW
00:35 8.7 °C 8.7 °C 1000.6 hPa Calm   4.8 km/h 100 % 0 mm WeatherDisplay:10.37 W/m2 FEW
00:40 8.8 °C 8.8 °C 1000.6 hPa NW 1.6 km/h 11.3 km/h 100 % 0 mm WeatherDisplay:10.37 W/m2 FEW
00:45 9 °C 9 °C 1000.6 hPa NW 4.8 km/h 11.3 km/h 100 % 0 mm WeatherDisplay:10.37 W/m2 FEW
00:50 9.2 °C 9.2 °C 1000.6 hPa NW 4.8 km/h 11.3 km/h 100 % 0 mm WeatherDisplay:10.37 W/m2 FEW
00:55 9.3 °C 9.3 °C 1000.6 hPa NW 4.8 km/h 16.1 km/h 100 % 0 mm WeatherDisplay:10.37 W/m2 FEW
01:00 9.3 °C 9.3 °C 1000.6 hPa NW 1.6 km/h 9.7 km/h 100 % 0 mm WeatherDisplay:10.37 W/m2 FEW
01:05 9.3 °C 9.3 °C 1000.6 hPa Calm   8 km/h 100 % 0 mm WeatherDisplay:10.37 W/m2 FEW
01:10 9.3 °C 9.3 °C 1000.6 hPa NW 3.2 km/h 12.9 km/h 100 % 0 mm WeatherDisplay:10.37 W/m2 FEW
01:15 9.3 °C 9.3 °C 1000.6 hPa NW 1.6 km/h 12.9 km/h 100 % 0 mm WeatherDisplay:10.37 W/m2 FEW
01:20 9.3 °C 9.3 °C 1000.6 hPa NW 3.2 km/h 11.3 km/h 100 % 0 mm WeatherDisplay:10.37 W/m2 FEW
01:25 9.3 °C 9.3 °C 1000.6 hPa NW 1.6 km/h 11.3 km/h 100 % 0 mm WeatherDisplay:10.37 W/m2 FEW
01:30 9.2 °C 9.2 °C 1000.6 hPa NW 1.6 km/h 11.3 km/h 100 % 0 mm WeatherDisplay:10.37 W/m2 FEW
01:35 9.1 °C 9.1 °C 1000.9 hPa NW 1.6 km/h 11.3 km/h 100 % 0 mm WeatherDisplay:10.37 W/m2 FEW
01:40 9 °C 9 °C 1000.9 hPa Calm   4.8 km/h 100 % 0 mm WeatherDisplay:10.37 W/m2 FEW
01:45 8.9 °C 8.9 °C 1000.9 hPa Calm   4.8 km/h 100 % 0 mm WeatherDisplay:10.37 W/m2 FEW
01:50 8.8 °C 8.8 °C 1001.2 hPa Calm   8 km/h 100 % 0 mm WeatherDisplay:10.37 W/m2 FEW
01:55 8.8 °C 8.8 °C 1001.2 hPa NW 1.6 km/h 6.4 km/h 100 % 0 mm WeatherDisplay:10.37 W/m2 FEW
02:00 8.7 °C 8.7 °C 1001.2 hPa Calm   3.2 km/h 100 % 0 mm WeatherDisplay:10.37 W/m2 FEW
02:05 8.6 °C 8.6 °C 1001.2 hPa Calm   4.8 km/h 100 % 0 mm WeatherDisplay:10.37 W/m2 FEW
02:10 8.6 °C 8.6 °C 1001.2 hPa Calm   3.2 km/h 100 % 0 mm WeatherDisplay:10.37 W/m2 FEW
02:15 8.5 °C 8.5 °C 1001.6 hPa Calm   3.2 km/h 100 % 0 mm WeatherDisplay:10.37 W/m2 FEW
02:20 8.4 °C 8.4 °C 1001.2 hPa Calm     100 % 0 mm WeatherDisplay:10.37 W/m2 FEW
02:25 8.4 °C 8.4 °C 1001.2 hPa Calm     100 % 0 mm WeatherDisplay:10.37 W/m2 FEW
02:30 8.4 °C 8.4 °C 1001.2 hPa Calm     100 % 0 mm WeatherDisplay:10.37 W/m2 FEW
02:35 8.4 °C 8.4 °C 1001.2 hPa Calm   4.8 km/h 100 % 0 mm WeatherDisplay:10.37 W/m2 FEW
02:40 8.3 °C 8.3 °C 1001.2 hPa Calm   3.2 km/h 100 % 0 mm WeatherDisplay:10.37 W/m2 FEW
02:45 8.3 °C 8.3 °C 1001.2 hPa WNW 1.6 km/h 4.8 km/h 100 % 0 mm WeatherDisplay:10.37 W/m2 FEW
02:50 8.3 °C 8.3 °C 1001.2 hPa Calm   4.8 km/h 100 % 0 mm WeatherDisplay:10.37 W/m2 FEW
02:55 8.3 °C 8.3 °C 1001.2 hPa Calm   6.4 km/h 100 % 0 mm WeatherDisplay:10.37 W/m2 FEW
03:00 8.3 °C 8.3 °C 1001.2 hPa Calm   4.8 km/h 100 % 0 mm WeatherDisplay:10.37 W/m2 FEW
03:05 8.3 °C 8.3 °C 1001.2 hPa Calm   3.2 km/h 100 % 0 mm WeatherDisplay:10.37 W/m2 FEW
03:10 8.3 °C 8.3 °C 1001.2 hPa Calm   3.2 km/h 100 % 0 mm WeatherDisplay:10.37 W/m2 FEW
03:15 8.3 °C 8.3 °C 1001.2 hPa Calm   3.2 km/h 100 % 0 mm WeatherDisplay:10.37 W/m2 FEW
03:20 8.3 °C 8.3 °C 1001.2 hPa Calm     100 % 0 mm WeatherDisplay:10.37 W/m2 FEW
03:25 8.3 °C 8.3 °C 1000.9 hPa Calm   1.6 km/h 100 % 0 mm WeatherDisplay:10.37 W/m2 FEW
03:30 8.2 °C 8.2 °C 1000.9 hPa Calm   3.2 km/h 100 % 0 mm WeatherDisplay:10.37 W/m2 FEW
03:35 8.2 °C 8.2 °C 1000.9 hPa Calm   1.6 km/h 100 % 0 mm WeatherDisplay:10.37 W/m2 FEW
03:40 8.2 °C 8.2 °C 1000.9 hPa Calm   1.6 km/h 100 % 0 mm WeatherDisplay:10.37 W/m2 FEW
03:45 8.1 °C 8.1 °C 1000.9 hPa Calm   6.4 km/h 100 % 0 mm WeatherDisplay:10.37 W/m2 FEW
03:50 8.1 °C 8.1 °C 1000.9 hPa Calm   3.2 km/h 100 % 0 mm WeatherDisplay:10.37 W/m2 FEW
03:55 8 °C 8 °C 1000.9 hPa Calm   4.8 km/h 100 % 0 mm WeatherDisplay:10.37 W/m2 FEW
04:00 8 °C 8 °C 1000.9 hPa WNW 1.6 km/h 11.3 km/h 100 % 0 mm WeatherDisplay:10.37 W/m2 FEW
04:05 7.9 °C 7.9 °C 1000.9 hPa Calm   6.4 km/h 100 % 0 mm WeatherDisplay:10.37 W/m2 FEW
04:10 7.9 °C 7.9 °C 1000.9 hPa Calm   3.2 km/h 100 % 0 mm WeatherDisplay:10.37 W/m2 FEW
04:15 7.9 °C 7.9 °C 1000.9 hPa Calm   3.2 km/h 100 % 0 mm WeatherDisplay:10.37 W/m2 FEW
04:20 7.8 °C 7.8 °C 1000.9 hPa NW 1.6 km/h 3.2 km/h 100 % 0 mm WeatherDisplay:10.37 W/m2 FEW
04:25 7.8 °C 7.8 °C 1001.2 hPa WNW 1.6 km/h 8 km/h 100 % 0 mm WeatherDisplay:10.37 W/m2 FEW
04:30 7.7 °C 7.7 °C 1001.2 hPa Calm   4.8 km/h 100 % 0 mm WeatherDisplay:10.37 W/m2 FEW
04:35 7.7 °C 7.7 °C 1001.2 hPa Calm   3.2 km/h 100 % 0 mm WeatherDisplay:10.37 W/m2 FEW
04:40 7.6 °C 7.6 °C 1001.2 hPa Calm   3.2 km/h 100 % 0 mm WeatherDisplay:10.37 W/m2 FEW
04:45 7.6 °C 7.6 °C 1001.2 hPa Calm     100 % 0 mm WeatherDisplay:10.37 W/m2 FEW
04:50 7.5 °C 7.5 °C 1001.2 hPa Calm   1.6 km/h 100 % 0 mm WeatherDisplay:10.37 W/m2 FEW
04:55 7.4 °C 7.4 °C 1001.2 hPa Calm     100 % 0 mm WeatherDisplay:10.37 W/m2 FEW
05:00 7.3 °C 7.3 °C 1001.2 hPa Calm   4.8 km/h 100 % 0 mm WeatherDisplay:10.37 W/m2 FEW
05:05 7.3 °C 7.3 °C 1001.2 hPa Calm   6.4 km/h 100 % 0 mm WeatherDisplay:10.37 W/m2 FEW
05:10 7.2 °C 7.2 °C 1001.2 hPa Calm   1.6 km/h 100 % 0 mm WeatherDisplay:10.37 W/m2 FEW
05:15 7.2 °C 7.2 °C 1001.2 hPa Calm     100 % 0 mm WeatherDisplay:10.37 W/m2 FEW
05:20 7.2 °C 7.2 °C 1001.2 hPa Calm   6.4 km/h 100 % 0 mm WeatherDisplay:10.37 W/m2 FEW
05:25 7.2 °C 7.2 °C 1001.6 hPa Calm     100 % 0 mm WeatherDisplay:10.37 W/m2 FEW
05:30 7.2 °C 7.2 °C 1001.6 hPa Calm     100 % 0 mm WeatherDisplay:10.37 W/m2 FEW
05:35 7.2 °C 7.2 °C 1001.6 hPa Calm     100 % 0 mm WeatherDisplay:10.37 W/m2 FEW
05:40 7.2 °C 7.2 °C 1001.6 hPa Calm   4.8 km/h 100 % 0 mm WeatherDisplay:10.37 W/m2 FEW
05:45 7.2 °C 7.2 °C 1001.6 hPa Calm   3.2 km/h 100 % 0 mm WeatherDisplay:10.37 W/m2 FEW
05:50 7.1 °C 7.1 °C 1001.6 hPa Calm   3.2 km/h 100 % 0 mm WeatherDisplay:10.37 W/m2 FEW
05:55 7 °C 7 °C 1001.6 hPa Calm   1.6 km/h 100 % 0 mm WeatherDisplay:10.37 W/m2 FEW
06:00 6.9 °C 6.9 °C 1001.9 hPa Calm   1.6 km/h 100 % 0 mm WeatherDisplay:10.37 W/m2 FEW
06:05 6.9 °C 6.9 °C 1001.9 hPa Calm     100 % 0 mm WeatherDisplay:10.37 W/m2 FEW
06:10 6.8 °C 6.8 °C 1001.9 hPa Calm     100 % 0 mm WeatherDisplay:10.37 W/m2 FEW
06:15 6.8 °C 6.8 °C 1001.9 hPa Calm     100 % 0 mm WeatherDisplay:10.37 W/m2 FEW
06:20 6.7 °C 6.7 °C 1001.9 hPa Calm     100 % 0 mm WeatherDisplay:10.37 W/m2 FEW
06:25 6.7 °C 6.7 °C 1001.9 hPa Calm     100 % 0 mm WeatherDisplay:10.37 W/m2 FEW
06:30 6.6 °C 6.6 °C 1001.9 hPa Calm     100 % 0 mm WeatherDisplay:10.37 W/m2 FEW
06:35 6.5 °C 6.5 °C 1001.9 hPa Calm     100 % 0 mm WeatherDisplay:10.37 W/m2 FEW
06:40 6.4 °C 6.4 °C 1001.9 hPa Calm     100 % 0 mm WeatherDisplay:10.37 W/m2 FEW
06:45 6.3 °C 6.3 °C 1001.9 hPa Calm     100 % 0 mm WeatherDisplay:10.37 W/m2 FEW
06:50 6.2 °C 6.2 °C 1001.9 hPa Calm     100 % 0 mm WeatherDisplay:10.37 W/m2 FEW
06:55 6.2 °C 6.2 °C 1001.9 hPa Calm     100 % 0 mm WeatherDisplay:10.37 W/m2 FEW
07:00 6.1 °C 6.1 °C 1001.9 hPa Calm     100 % 0 mm WeatherDisplay:10.37 W/m2 FEW
07:05 6 °C 6 °C 1001.9 hPa Calm   1.6 km/h 100 % 0 mm WeatherDisplay:10.37 W/m2 FEW
07:10 6 °C 6 °C 1001.9 hPa Calm   1.6 km/h 100 % 0 mm WeatherDisplay:10.37 W/m2 FEW
07:15 5.9 °C 5.9 °C 1001.9 hPa Calm   1.6 km/h 100 % 0 mm WeatherDisplay:10.37 W/m2 FEW
07:20 5.9 °C 5.9 °C 1001.9 hPa Calm   1.6 km/h 100 % 0 mm WeatherDisplay:10.37 W/m2 FEW
07:25 5.9 °C 5.9 °C 1002.3 hPa Calm   1.6 km/h 100 % 0 mm WeatherDisplay:10.37 W/m2 FEW
07:30 5.9 °C 5.9 °C 1002.3 hPa Calm   1.6 km/h 100 % 0 mm WeatherDisplay:10.37 W/m2 FEW
07:35 5.9 °C 5.9 °C 1002.3 hPa Calm   1.6 km/h 100 % 0 mm WeatherDisplay:10.37 W/m2 FEW
07:40 5.9 °C 5.9 °C 1002.3 hPa Calm   4.8 km/h 100 % 0 mm WeatherDisplay:10.37 W/m2 FEW
07:45 5.9 °C 5.9 °C 1002.3 hPa Calm   1.6 km/h 100 % 0 mm WeatherDisplay:10.37 W/m2 FEW
07:50 5.9 °C 5.9 °C 1002.3 hPa Calm   3.2 km/h 100 % 0 mm WeatherDisplay:10.37 W/m2 FEW
07:55 5.9 °C 5.9 °C 1002.3 hPa Calm   1.6 km/h 100 % 0 mm WeatherDisplay:10.37 W/m2 FEW
08:00 5.9 °C 5.9 °C 1002.3 hPa Calm   3.2 km/h 100 % 0 mm WeatherDisplay:10.37 W/m2 FEW
08:05 5.8 °C 5.8 °C 1002.3 hPa Calm   6.4 km/h 100 % 0 mm WeatherDisplay:10.37 W/m2 FEW
08:10 5.8 °C 5.8 °C 1002.3 hPa Calm   3.2 km/h 100 % 0 mm WeatherDisplay:10.37 W/m2 FEW
08:15 5.8 °C 5.8 °C 1002.3 hPa Calm   4.8 km/h 100 % 0 mm WeatherDisplay:10.37 W/m2 FEW
08:20 5.8 °C 5.8 °C 1002.3 hPa Calm   4.8 km/h 100 % 0 mm WeatherDisplay:10.37 W/m2 FEW
08:25 5.7 °C 5.7 °C 1002.6 hPa NW 1.6 km/h 4.8 km/h 100 % 0 mm WeatherDisplay:10.37 W/m2 FEW
08:30 5.7 °C 5.7 °C 1002.6 hPa NW 1.6 km/h 6.4 km/h 100 % 0 mm WeatherDisplay:10.37 W/m2 FEW
08:35 5.7 °C 5.7 °C 1002.3 hPa Calm   3.2 km/h 100 % 0 mm WeatherDisplay:10.37 W/m2 FEW
08:40 5.7 °C 5.7 °C 1002.3 hPa Calm   3.2 km/h 100 % 0 mm WeatherDisplay:10.37 W/m2 FEW
08:45 5.8 °C 5.8 °C 1002.6 hPa NW 8 km/h 12.9 km/h 100 % 0 mm WeatherDisplay:10.37 W/m2 FEW
08:50 5.9 °C 5.9 °C 1002.6 hPa NW 1.6 km/h 11.3 km/h 100 % 0 mm WeatherDisplay:10.37 W/m2 FEW
08:55 5.9 °C 5.9 °C 1002.6 hPa NW 4.8 km/h 12.9 km/h 100 % 0 mm WeatherDisplay:10.37 W/m2 FEW
09:00 5.8 °C 5.8 °C 1002.6 hPa NW 4.8 km/h 19.3 km/h 100 % 0 mm WeatherDisplay:10.37 W/m2 FEW
09:05 5.8 °C 5.8 °C 1002.6 hPa NW 4.8 km/h 14.5 km/h 100 % 0 mm WeatherDisplay:10.37 W/m2 FEW
09:10 5.6 °C 5.6 °C 1002.3 hPa NW 1.6 km/h 12.9 km/h 100 % 0 mm WeatherDisplay:10.37 W/m2 FEW
09:15 5.6 °C 5.6 °C 1002.3 hPa WNW 3.2 km/h 11.3 km/h 100 % 0 mm WeatherDisplay:10.37 W/m2 FEW
09:20 5.6 °C 5.6 °C 1002.3 hPa WNW 1.6 km/h 12.9 km/h 100 % 0 mm WeatherDisplay:10.37 W/m2 FEW
09:25 5.6 °C 5.6 °C 1002.3 hPa NW 4.8 km/h 16.1 km/h 100 % 0 mm WeatherDisplay:10.37 W/m2 FEW
09:30 5.6 °C 5.6 °C 1002.3 hPa NW 4.8 km/h 12.9 km/h 100 % 0 mm WeatherDisplay:10.37 W/m2 FEW
09:35 5.6 °C 5.3 °C 1002.3 hPa NW 1.6 km/h 12.9 km/h 98 % 0 mm WeatherDisplay:10.37 W/m2 FEW
09:40 5.6 °C 5.1 °C 1002.3 hPa NW 8 km/h 17.7 km/h 96 % 0 mm WeatherDisplay:10.37 W/m2 FEW
09:45 5.7 °C 5 °C 1002.6 hPa NW 1.6 km/h 16.1 km/h 95 % 0 mm WeatherDisplay:10.37 W/m2 FEW
09:50 5.9 °C 5 °C 1002.6 hPa NW 3.2 km/h 16.1 km/h 94 % 0 mm WeatherDisplay:10.37 W/m2 FEW
09:55 6.1 °C 4.7 °C 1002.6 hPa NW 12.9 km/h 22.5 km/h 91 % 0 mm WeatherDisplay:10.37 W/m2 FEW
10:00 6.2 °C 4.1 °C 1002.6 hPa WNW 4.8 km/h 22.5 km/h 86 % 0 mm WeatherDisplay:10.37 W/m2 FEW
10:05 6.4 °C 3.9 °C 1002.6 hPa WNW 3.2 km/h 19.3 km/h 84 % 0 mm WeatherDisplay:10.37 W/m2 FEW
10:10 6.6 °C 3.8 °C 1002.6 hPa NW 12.9 km/h 24.1 km/h 82 % 0 mm WeatherDisplay:10.37 W/m2 FEW
10:15 6.8 °C 3.6 °C 1002.3 hPa NNW 4.8 km/h 19.3 km/h 80 % 0 mm WeatherDisplay:10.37 W/m2 FEW
10:20 6.9 °C 3.3 °C 1002.6 hPa NNW 3.2 km/h 25.7 km/h 78 % 0 mm WeatherDisplay:10.37 W/m2 FEW
10:25 7.1 °C 3.1 °C 1002.6 hPa NNW 4.8 km/h 27.4 km/h 76 % 0 mm WeatherDisplay:10.37 W/m2 FEW
10:30 7.2 °C 2.8 °C 1002.6 hPa NW 4.8 km/h 22.5 km/h 74 % 0 mm WeatherDisplay:10.37 W/m2 FEW
10:35 7.3 °C 2.9 °C 1002.6 hPa NNW 11.3 km/h 25.7 km/h 74 % 0 mm WeatherDisplay:10.37 W/m2 FEW
10:40 7.4 °C 3.1 °C 1002.6 hPa NW 9.7 km/h 20.9 km/h 74 % 0 mm WeatherDisplay:10.37 W/m2 FEW
10:45 7.4 °C 2.9 °C 1002.6 hPa NW 4.8 km/h 19.3 km/h 73 % 0 mm WeatherDisplay:10.37 W/m2 FEW
10:50 7.6 °C 3 °C 1002.6 hPa WNW 3.2 km/h 19.3 km/h 73 % 0 mm WeatherDisplay:10.37 W/m2 FEW
10:55 7.7 °C 2.9 °C 1002.6 hPa NW 4.8 km/h 25.7 km/h 72 % 0 mm WeatherDisplay:10.37 W/m2 FEW
11:00 7.8 °C 3 °C 1002.6 hPa NW 4.8 km/h 19.3 km/h 72 % 0 mm WeatherDisplay:10.37 W/m2 FEW
11:05 7.8 °C 2.7 °C 1002.6 hPa NW 4.8 km/h 19.3 km/h 70 % 0 mm WeatherDisplay:10.37 W/m2 FEW
11:10 7.8 °C 2.4 °C 1002.6 hPa NW 8 km/h 20.9 km/h 69 % 0 mm WeatherDisplay:10.37 W/m2 FEW
11:15 7.8 °C 2.4 °C 1002.6 hPa WNW 8 km/h 20.9 km/h 69 % 0 mm WeatherDisplay:10.37 W/m2 FEW
11:20 7.8 °C 2.7 °C 1002.6 hPa WNW 11.3 km/h 20.9 km/h 70 % 0 mm WeatherDisplay:10.37 W/m2 FEW
11:25 7.8 °C 2.5 °C 1002.6 hPa NW 11.3 km/h 22.5 km/h 69 % 0 mm WeatherDisplay:10.37 W/m2 FEW
11:30 7.9 °C 3.2 °C 1002.6 hPa NW 3.2 km/h 19.3 km/h 72 % 0 mm WeatherDisplay:10.37 W/m2 FEW
11:35 8.1 °C 3.3 °C 1002.6 hPa NW 3.2 km/h 16.1 km/h 72 % 0 mm WeatherDisplay:10.37 W/m2 FEW
11:40 8.1 °C 3.2 °C 1002.6 hPa NW 8 km/h 12.9 km/h 71 % 0 mm WeatherDisplay:10.37 W/m2 FEW
11:45 8.2 °C 3 °C 1002.6 hPa NW 8 km/h 20.9 km/h 70 % 0 mm WeatherDisplay:10.37 W/m2 FEW
11:50 8.2 °C 2.8 °C 1002.6 hPa WNW 4.8 km/h 16.1 km/h 69 % 0 mm WeatherDisplay:10.37 W/m2 FEW
11:55 8.2 °C 3.4 °C 1002.6 hPa Calm   6.4 km/h 72 % 0 mm WeatherDisplay:10.37 W/m2 FEW
12:00 8.3 °C 3.1 °C 1002.6 hPa NNW 4.8 km/h 14.5 km/h 70 % 0 mm WeatherDisplay:10.37 W/m2 FEW
12:05 8.3 °C 2.9 °C 1002.6 hPa NW 4.8 km/h 19.3 km/h 69 % 0 mm WeatherDisplay:10.37 W/m2 FEW
12:10 8.4 °C 3.3 °C 1002.6 hPa WNW 3.2 km/h 20.9 km/h 70 % 0 mm WeatherDisplay:10.37 W/m2 FEW
12:15 8.6 °C 4 °C 1002.6 hPa WNW 3.2 km/h 14.5 km/h 73 % 0 mm WeatherDisplay:10.37 W/m2 FEW
12:20 8.6 °C 3.7 °C 1002.6 hPa NW 3.2 km/h 24.1 km/h 71 % 0 mm WeatherDisplay:10.37 W/m2 FEW
12:25 8.6 °C 3.8 °C 1002.6 hPa NNW 3.2 km/h 14.5 km/h 72 % 0 mm WeatherDisplay:10.37 W/m2 FEW
12:30 8.5 °C 3.5 °C 1002.6 hPa NW 8 km/h 14.5 km/h 71 % 0 mm WeatherDisplay:10.37 W/m2 FEW
12:35 8.4 °C 3.2 °C 1002.6 hPa NW 3.2 km/h 14.5 km/h 70 % 0 mm WeatherDisplay:10.37 W/m2 FEW
12:40 8.3 °C 3.2 °C 1002.6 hPa NW 3.2 km/h 16.1 km/h 70 % 0 mm WeatherDisplay:10.37 W/m2 FEW
12:45 8.3 °C 3.2 °C 1002.3 hPa NW 4.8 km/h 14.5 km/h 70 % 0 mm WeatherDisplay:10.37 W/m2 FEW
12:50 8.3 °C 2.8 °C 1002.3 hPa NW 8 km/h 19.3 km/h 68 % 0 mm WeatherDisplay:10.37 W/m2 FEW
12:55 8.4 °C 2.8 °C 1002.6 hPa NW 4.8 km/h 25.7 km/h 68 % 0 mm WeatherDisplay:10.37 W/m2 FEW
13:00 8.3 °C 2.6 °C 1002.6 hPa WNW 8 km/h 17.7 km/h 67 % 0 mm WeatherDisplay:10.37 W/m2 FEW
13:05 8.3 °C 2.7 °C 1002.3 hPa NW 4.8 km/h 12.9 km/h 68 % 0 mm WeatherDisplay:10.37 W/m2 FEW
13:10 8.3 °C 2.8 °C 1002.3 hPa NW 3.2 km/h 12.9 km/h 68 % 0 mm WeatherDisplay:10.37 W/m2 FEW
13:15 8.4 °C 2.6 °C 1002.3 hPa WNW 3.2 km/h 12.9 km/h 67 % 0 mm WeatherDisplay:10.37 W/m2 FEW
13:20 8.6 °C 3 °C 1002.3 hPa NW 3.2 km/h 14.5 km/h 68 % 0 mm WeatherDisplay:10.37 W/m2 FEW
13:25 8.7 °C 2.5 °C 1002.3 hPa NNW 8 km/h 19.3 km/h 65 % 0 mm WeatherDisplay:10.37 W/m2 FEW
13:30 8.8 °C 2.4 °C 1002.3 hPa NW 3.2 km/h 22.5 km/h 64 % 0 mm WeatherDisplay:10.37 W/m2 FEW
13:35 8.8 °C 2.2 °C 1001.9 hPa NW 3.2 km/h 19.3 km/h 63 % 0 mm WeatherDisplay:10.37 W/m2 FEW
13:40 8.8 °C 2.2 °C 1002.3 hPa NW 9.7 km/h 20.9 km/h 63 % 0 mm WeatherDisplay:10.37 W/m2 FEW
13:45 8.8 °C 1.9 °C 1002.3 hPa WNW 8 km/h 20.9 km/h 62 % 0 mm WeatherDisplay:10.37 W/m2 FEW
13:50 8.7 °C 1.8 °C 1001.9 hPa NW 4.8 km/h 19.3 km/h 62 % 0 mm WeatherDisplay:10.37 W/m2 FEW
13:55 8.7 °C 1.8 °C 1001.9 hPa NNW 3.2 km/h 20.9 km/h 62 % 0 mm WeatherDisplay:10.37 W/m2 FEW
14:00 8.8 °C 1.9 °C 1001.9 hPa NW 3.2 km/h 20.9 km/h 62 % 0 mm WeatherDisplay:10.37 W/m2 FEW
14:05 8.9 °C 1.8 °C 1001.9 hPa WNW 3.2 km/h 20.9 km/h 61 % 0 mm WeatherDisplay:10.37 W/m2 FEW
14:10 9.1 °C 1.9 °C 1001.9 hPa WNW 3.2 km/h 14.5 km/h 61 % 0 mm WeatherDisplay:10.37 W/m2 FEW
14:15 9.1 °C 1.5 °C 1001.9 hPa NW 3.2 km/h 19.3 km/h 59 % 0 mm WeatherDisplay:10.37 W/m2 FEW
14:20 9.1 °C 1.8 °C 1001.9 hPa WNW 4.8 km/h 22.5 km/h 60 % 0 mm WeatherDisplay:10.37 W/m2 FEW
14:25 9.1 °C 1.5 °C 1001.9 hPa NW 4.8 km/h 17.7 km/h 59 % 0 mm WeatherDisplay:10.37 W/m2 FEW
14:30 9.1 °C 2 °C 1001.9 hPa NW 3.2 km/h 24.1 km/h 61 % 0 mm WeatherDisplay:10.37 W/m2 FEW
14:35 9.1 °C 1.7 °C 1001.9 hPa NW 3.2 km/h 19.3 km/h 60 % 0 mm WeatherDisplay:10.37 W/m2 FEW
14:40 9.2 °C 1.6 °C 1001.9 hPa NW 4.8 km/h 19.3 km/h 59 % 0 mm WeatherDisplay:10.37 W/m2 FEW
14:45 9.3 °C 1.7 °C 1001.9 hPa NNW 4.8 km/h 24.1 km/h 59 % 0 mm WeatherDisplay:10.37 W/m2 FEW
14:50 9.3 °C 1.5 °C 1001.9 hPa NNW 9.7 km/h 24.1 km/h 58 % 0 mm WeatherDisplay:10.37 W/m2 FEW
14:55 9.4 °C 2.1 °C 1001.9 hPa WNW 3.2 km/h 24.1 km/h 60 % 0 mm WeatherDisplay:10.37 W/m2 FEW
15:00 9.6 °C 1.7 °C 1001.9 hPa NW 8 km/h 24.1 km/h 58 % 0 mm WeatherDisplay:10.37 W/m2 FEW
15:05 9.6 °C 1.7 °C 1002.3 hPa NW 4.8 km/h 12.9 km/h 58 % 0 mm WeatherDisplay:10.37 W/m2 FEW
15:10 9.6 °C 1.4 °C 1002.3 hPa WNW 4.8 km/h 24.1 km/h 57 % 0 mm WeatherDisplay:10.37 W/m2 FEW
15:15 9.5 °C 1.6 °C 1002.3 hPa NW 3.2 km/h 16.1 km/h 58 % 0 mm WeatherDisplay:10.37 W/m2 FEW
15:20 9.4 °C 1.8 °C 1002.3 hPa WNW 1.6 km/h 12.9 km/h 59 % 0 mm WeatherDisplay:10.37 W/m2 FEW
15:25 9.3 °C 1.4 °C 1002.3 hPa NW 8 km/h 19.3 km/h 58 % 0 mm WeatherDisplay:10.37 W/m2 FEW
15:30 9.2 °C 1.4 °C 1002.3 hPa NW 8 km/h 16.1 km/h 58 % 0 mm WeatherDisplay:10.37 W/m2 FEW
15:35 9.2 °C 1.6 °C 1001.9 hPa NW 4.8 km/h 12.9 km/h 59 % 0 mm WeatherDisplay:10.37 W/m2 FEW
15:40 9.1 °C 1.8 °C 1002.3 hPa NW 4.8 km/h 20.9 km/h 60 % 0 mm WeatherDisplay:10.37 W/m2 FEW
15:45 9.1 °C 1.5 °C 1002.3 hPa NW 3.2 km/h 20.9 km/h 59 % 0 mm WeatherDisplay:10.37 W/m2 FEW
15:50 9.1 °C 1.4 °C 1002.3 hPa NW 8 km/h 14.5 km/h 59 % 0 mm WeatherDisplay:10.37 W/m2 FEW
15:55 9 °C 1.4 °C 1002.3 hPa NW 4.8 km/h 17.7 km/h 59 % 0 mm WeatherDisplay:10.37 W/m2 FEW
16:00 8.9 °C 1.3 °C 1002.3 hPa NW 4.8 km/h 12.9 km/h 59 % 0 mm WeatherDisplay:10.37 W/m2 FEW
16:05 8.9 °C 1.3 °C 1002.3 hPa NW 8 km/h 19.3 km/h 59 % 0 mm WeatherDisplay:10.37 W/m2 FEW
16:10 8.9 °C 1.1 °C 1002.3 hPa NW 11.3 km/h 17.7 km/h 58 % 0 mm WeatherDisplay:10.37 W/m2 FEW
16:15 8.8 °C 1.2 °C 1002.3 hPa NNW 4.8 km/h 19.3 km/h 59 % 0 mm WeatherDisplay:10.37 W/m2 FEW
16:20 8.8 °C 0.9 °C 1002.3 hPa NNW 8 km/h 19.3 km/h 58 % 0 mm WeatherDisplay:10.37 W/m2 FEW
16:25 8.7 °C 0.9 °C 1002.3 hPa NW 8 km/h 19.3 km/h 58 % 0 mm WeatherDisplay:10.37 W/m2 FEW
16:30 8.7 °C 1.1 °C 1002.3 hPa NW 9.7 km/h 19.3 km/h 59 % 0 mm WeatherDisplay:10.37 W/m2 FEW
16:35 8.6 °C 1.1 °C 1002.3 hPa NW 9.7 km/h 16.1 km/h 59 % 0 mm WeatherDisplay:10.37 W/m2 FEW
16:40 8.6 °C 1.3 °C 1002.3 hPa NW 9.7 km/h 20.9 km/h 60 % 0 mm WeatherDisplay:10.37 W/m2 FEW
16:45 8.6 °C 1 °C 1002.3 hPa NNW 4.8 km/h 22.5 km/h 59 % 0 mm WeatherDisplay:10.37 W/m2 FEW
16:50 8.5 °C 0.9 °C 1002.3 hPa NW 4.8 km/h 19.3 km/h 59 % 0 mm WeatherDisplay:10.37 W/m2 FEW
16:55 8.5 °C 1.4 °C 1002.3 hPa NW 3.2 km/h 14.5 km/h 61 % 0 mm WeatherDisplay:10.37 W/m2 FEW
17:00 8.4 °C 1.3 °C 1002.3 hPa NW 1.6 km/h 11.3 km/h 61 % 0 mm WeatherDisplay:10.37 W/m2 FEW
17:05 8.4 °C 1.6 °C 1002.3 hPa NW 1.6 km/h 8 km/h 62 % 0 mm WeatherDisplay:10.37 W/m2 FEW
17:10 8.4 °C 1.5 °C 1002.3 hPa Calm   8 km/h 62 % 0 mm WeatherDisplay:10.37 W/m2 FEW
17:15 8.4 °C 1.5 °C 1002.3 hPa NW 4.8 km/h 16.1 km/h 62 % 0 mm WeatherDisplay:10.37 W/m2 FEW
17:20 8.3 °C 1.4 °C 1002.3 hPa Calm   11.3 km/h 62 % 0 mm WeatherDisplay:10.37 W/m2 FEW
17:25 8.3 °C 1.4 °C 1002.3 hPa NNW 1.6 km/h 16.1 km/h 62 % 0 mm WeatherDisplay:10.37 W/m2 FEW
17:30 8.3 °C 1.4 °C 1001.9 hPa NNW 1.6 km/h 19.3 km/h 62 % 0 mm WeatherDisplay:10.37 W/m2 FEW
17:35 8.2 °C 1.4 °C 1002.3 hPa NNW 3.2 km/h 11.3 km/h 62 % 0 mm WeatherDisplay:10.37 W/m2 FEW
17:40 8.2 °C 1.1 °C 1002.3 hPa NW 8 km/h 19.3 km/h 61 % 0 mm WeatherDisplay:10.37 W/m2 FEW
17:45 8.2 °C 1.1 °C 1002.6 hPa NW 4.8 km/h 16.1 km/h 61 % 0 mm WeatherDisplay:10.37 W/m2 FEW
17:50 8.2 °C 1.3 °C 1002.6 hPa NW 1.6 km/h 12.9 km/h 62 % 0 mm WeatherDisplay:10.37 W/m2 FEW
17:55 8.2 °C 1.3 °C 1002.6 hPa NW 4.8 km/h 16.1 km/h 62 % 0 mm WeatherDisplay:10.37 W/m2 FEW
18:00 8.1 °C 1.3 °C 1002.6 hPa NW 1.6 km/h 12.9 km/h 62 % 0 mm WeatherDisplay:10.37 W/m2 FEW
18:05 8.1 °C 1.2 °C 1002.6 hPa NNW 1.6 km/h 14.5 km/h 62 % 0 mm WeatherDisplay:10.37 W/m2 FEW
18:10 8 °C 1.4 °C 1002.6 hPa NW 1.6 km/h 11.3 km/h 63 % 0 mm WeatherDisplay:10.37 W/m2 FEW
18:15 7.9 °C 1.3 °C 1002.9 hPa NW 3.2 km/h 14.5 km/h 63 % 0 mm WeatherDisplay:10.37 W/m2 FEW
18:20 7.9 °C 1.3 °C 1002.6 hPa NW 1.6 km/h 8 km/h 63 % 0 mm WeatherDisplay:10.37 W/m2 FEW
18:25 7.8 °C 1.4 °C 1002.6 hPa Calm   4.8 km/h 64 % 0 mm WeatherDisplay:10.37 W/m2 FEW
18:30 7.8 °C 1.4 °C 1002.9 hPa NNW 1.6 km/h 9.7 km/h 64 % 0 mm WeatherDisplay:10.37 W/m2 FEW
18:35 7.7 °C 1.6 °C 1002.9 hPa Calm   3.2 km/h 65 % 0 mm WeatherDisplay:10.37 W/m2 FEW
18:40 7.7 °C 1.7 °C 1002.9 hPa Calm   4.8 km/h 66 % 0 mm WeatherDisplay:10.37 W/m2 FEW
18:45 7.6 °C 1.9 °C 1002.9 hPa Calm   4.8 km/h 67 % 0 mm WeatherDisplay:10.37 W/m2 FEW
18:50 7.6 °C 1.8 °C 1002.9 hPa Calm   6.4 km/h 67 % 0 mm WeatherDisplay:10.37 W/m2 FEW
18:55 7.5 °C 1.8 °C 1002.9 hPa Calm   4.8 km/h 67 % 0 mm WeatherDisplay:10.37 W/m2 FEW
19:00 7.4 °C 1.9 °C 1002.9 hPa Calm   9.7 km/h 68 % 0 mm WeatherDisplay:10.37 W/m2 FEW
19:05 7.3 °C 1.8 °C 1002.9 hPa Calm     68 % 0 mm WeatherDisplay:10.37 W/m2 FEW
19:10 7.2 °C 1.7 °C 1003.3 hPa Calm     68 % 0 mm WeatherDisplay:10.37 W/m2 FEW
19:15 7.2 °C 1.8 °C 1003.3 hPa Calm     69 % 0 mm WeatherDisplay:10.37 W/m2 FEW
19:20 7 °C 1.7 °C 1002.9 hPa Calm     69 % 0 mm WeatherDisplay:10.37 W/m2 FEW
19:25 6.9 °C 2 °C 1002.9 hPa Calm     71 % 0 mm WeatherDisplay:10.37 W/m2 FEW
19:30 6.7 °C 2 °C 1003.3 hPa Calm     72 % 0 mm WeatherDisplay:10.37 W/m2 FEW
19:35 6.5 °C 2 °C 1002.9 hPa Calm     73 % 0 mm WeatherDisplay:10.37 W/m2 FEW
19:40 6.3 °C 2.1 °C 1003.3 hPa Calm     74 % 0 mm WeatherDisplay:10.37 W/m2 FEW
19:45 6.1 °C 2 °C 1003.3 hPa Calm     75 % 0 mm WeatherDisplay:10.37 W/m2 FEW
19:50 5.9 °C 2 °C 1003.6 hPa Calm     76 % 0 mm WeatherDisplay:10.37 W/m2 FEW
19:55 5.7 °C 1.8 °C 1003.6 hPa Calm     76 % 0 mm WeatherDisplay:10.37 W/m2 FEW
20:00 5.5 °C 1.6 °C 1003.6 hPa Calm     76 % 0 mm WeatherDisplay:10.37 W/m2 FEW
20:05 5.3 °C 1.6 °C 1003.6 hPa Calm     77 % 0 mm WeatherDisplay:10.37 W/m2 FEW
20:10 5.1 °C 1.6 °C 1003.6 hPa Calm     78 % 0 mm WeatherDisplay:10.37 W/m2 FEW
20:15 5 °C 1.4 °C 1003.6 hPa Calm     78 % 0 mm WeatherDisplay:10.37 W/m2 FEW
20:20 4.8 °C 1.4 °C 1003.6 hPa Calm     79 % 0 mm WeatherDisplay:10.37 W/m2 FEW
20:25 4.7 °C 1.5 °C 1003.6 hPa Calm     80 % 0 mm WeatherDisplay:10.37 W/m2 FEW
20:30 4.5 °C 1.5 °C 1003.6 hPa Calm     81 % 0 mm WeatherDisplay:10.37 W/m2 FEW
20:35 4.3 °C 1.3 °C 1003.6 hPa Calm   1.6 km/h 81 % 0 mm WeatherDisplay:10.37 W/m2 FEW
20:40 4.2 °C 1.2 °C 1003.6 hPa Calm     81 % 0 mm WeatherDisplay:10.37 W/m2 FEW
20:45 4.1 °C 1.3 °C 1003.9 hPa Calm     82 % 0 mm WeatherDisplay:10.37 W/m2 FEW
20:50 4 °C 1.2 °C 1003.9 hPa Calm     82 % 0 mm WeatherDisplay:10.37 W/m2 FEW
20:55 3.9 °C 1.2 °C 1003.9 hPa Calm     82 % 0 mm WeatherDisplay:10.37 W/m2 FEW
21:00 3.8 °C 1.2 °C 1003.9 hPa Calm     83 % 0 mm WeatherDisplay:10.37 W/m2 FEW
21:05 3.7 °C 1.1 °C 1003.9 hPa Calm     83 % 0 mm WeatherDisplay:10.37 W/m2 FEW
21:10 3.7 °C 1.1 °C 1003.9 hPa Calm     83 % 0 mm WeatherDisplay:10.37 W/m2 FEW
21:15 3.6 °C 1.1 °C 1003.6 hPa Calm     84 % 0 mm WeatherDisplay:10.37 W/m2 FEW
21:20 3.4 °C 1 °C 1003.9 hPa Calm     84 % 0 mm WeatherDisplay:10.37 W/m2 FEW
21:25 3.4 °C 0.9 °C 1003.9 hPa Calm     84 % 0 mm WeatherDisplay:10.37 W/m2 FEW
21:30 3.3 °C 0.8 °C 1004.3 hPa Calm     84 % 0 mm WeatherDisplay:10.37 W/m2 FEW
21:35 3.2 °C 0.8 °C 1003.9 hPa Calm     84 % 0 mm WeatherDisplay:10.37 W/m2 FEW
21:40 3.2 °C 0.9 °C 1004.3 hPa Calm     85 % 0 mm WeatherDisplay:10.37 W/m2 FEW
21:45 3.1 °C 0.8 °C 1004.3 hPa Calm     85 % 0 mm WeatherDisplay:10.37 W/m2 FEW
21:50 3 °C 0.7 °C 1004.3 hPa Calm     85 % 0 mm WeatherDisplay:10.37 W/m2 FEW
21:55 2.9 °C 0.7 °C 1004.3 hPa Calm     85 % 0 mm WeatherDisplay:10.37 W/m2 FEW
22:00 2.9 °C 0.8 °C 1004.3 hPa Calm     86 % 0 mm WeatherDisplay:10.37 W/m2 FEW
22:05 2.8 °C 0.7 °C 1004.3 hPa Calm     86 % 0 mm WeatherDisplay:10.37 W/m2 FEW
22:10 2.8 °C 0.7 °C 1004.3 hPa Calm     86 % 0 mm WeatherDisplay:10.37 W/m2 FEW
22:15 2.7 °C 0.8 °C 1004.3 hPa Calm     87 % 0 mm WeatherDisplay:10.37 W/m2 FEW
22:20 2.7 °C 0.8 °C 1004.3 hPa Calm     87 % 0 mm WeatherDisplay:10.37 W/m2 FEW
22:25 2.7 °C 0.9 °C 1004.3 hPa Calm     88 % 0 mm WeatherDisplay:10.37 W/m2 FEW
22:30 2.7 °C 0.9 °C 1004.3 hPa Calm     88 % 0 mm WeatherDisplay:10.37 W/m2 FEW
22:35 2.7 °C 1.1 °C 1004.3 hPa Calm     89 % 0 mm WeatherDisplay:10.37 W/m2 FEW
22:40 2.7 °C 1.1 °C 1004.3 hPa Calm     89 % 0 mm WeatherDisplay:10.37 W/m2 FEW
22:45 2.7 °C 1.2 °C 1004.3 hPa Calm     90 % 0 mm WeatherDisplay:10.37 W/m2 FEW
22:50 2.8 °C 1.3 °C 1004.3 hPa Calm     90 % 0 mm WeatherDisplay:10.37 W/m2 FEW
22:55 2.8 °C 1.3 °C 1004.3 hPa Calm     90 % 0 mm WeatherDisplay:10.37 W/m2 FEW
23:00 2.8 °C 1.3 °C 1004.3 hPa Calm     90 % 0 mm WeatherDisplay:10.37 W/m2 FEW
23:05 2.9 °C 1.4 °C 1004.6 hPa Calm     90 % 0 mm WeatherDisplay:10.37 W/m2 FEW
23:10 2.9 °C 1.6 °C 1004.3 hPa Calm     91 % 0 mm WeatherDisplay:10.37 W/m2 FEW
23:15 3 °C 1.7 °C 1004.3 hPa Calm     91 % 0 mm WeatherDisplay:10.37 W/m2 FEW
23:20 3.1 °C 1.8 °C 1004.3 hPa Calm     91 % 0 mm WeatherDisplay:10.37 W/m2 FEW
23:25 3.1 °C 1.8 °C 1004.6 hPa Calm     91 % 0 mm WeatherDisplay:10.37 W/m2 FEW
23:30 3.2 °C 1.8 °C 1004.3 hPa Calm     91 % 0 mm WeatherDisplay:10.37 W/m2 FEW
23:35 3.2 °C 1.8 °C 1004.6 hPa Calm     91 % 0 mm WeatherDisplay:10.37 W/m2 FEW
23:40 3.2 °C 1.9 °C 1004.6 hPa Calm     91 % 0 mm WeatherDisplay:10.37 W/m2 FEW
23:45 3.2 °C 1.9 °C 1004.6 hPa Calm     91 % 0 mm WeatherDisplay:10.37 W/m2 FEW
23:50 3.3 °C 1.9 °C 1005 hPa Calm     91 % 0 mm WeatherDisplay:10.37 W/m2 FEW
23:55 3.3 °C 2 °C 1005 hPa Calm     91 % 0 mm WeatherDisplay:10.37 W/m2 FEW
Juneau County Weather
Compliments of Weather Underground - 3 mb